Terminal Aerodrome Forecast
Issued by NWS

Home | Current Version | Previous Version | Text Only | Print | Product List | Glossary On
Versions: 1 2 3 4 5 6 7 8 9 10 11 12
526
FTUS43 KLSX 260520
TAFCPS
TAF
KCPS 260520Z 2606/2706 12005KT P6SM SCT200
     FM261800 18005KT P6SM SCT200
     FM262000 18004KT P6SM BKN050
     FM270100 18006KT P6SM SCT120=

USA.gov is the U.S. government's official web portal to all federal, state and local government web resources and services.